Time;durP1;ratioP1;P1;durP2;ratioP2;P2;SDS_P1;SDS_P2;PMS_P1;PMS_P2;Temp;Humidity;BMP_temperature;BMP_pressure;BME280_temperature;BME280_humidity;BME280_pressure;Samples;Min_cycle;Max_cycle;Signal;HPM_P1;HPM_P2
2022/03/10 00:02:17;;;;;;;;;;;-0.20;99.90;;;;;;5089188;28;19960;-56
2022/03/10 00:04:44;;;;;;;;;;;-0.20;99.90;;;;;;5081913;28;19966;-57
2022/03/10 00:07:11;;;;;;;;;;;-0.20;99.90;;;;;;5093779;28;20459;-56
2022/03/10 00:09:38;;;;;;;;;;;-0.30;99.90;;;;;;5093480;28;19958;-55
2022/03/10 00:12:05;;;;;;;;;;;-0.20;99.90;;;;;;5081655;28;20012;-56
2022/03/10 00:14:33;;;;;;;;;;;-0.30;99.90;;;;;;5088528;28;20457;-56
2022/03/10 00:16:59;;;;;;;;;;;-0.30;99.90;;;;;;5093415;28;19924;-56
2022/03/10 00:19:26;;;;;;;;;;;-0.30;99.90;;;;;;5087137;28;19919;-56
2022/03/10 00:21:53;;;;;;;;;;;-0.20;99.90;;;;;;5085081;28;19999;-57
2022/03/10 00:24:20;;;;;;;;;;;-0.20;99.90;;;;;;5093657;28;19924;-57
2022/03/10 00:26:47;;;;;;;;;;;-0.20;99.90;;;;;;5093330;28;20019;-56
2022/03/10 00:29:14;;;;;;;;;;;-0.20;99.90;;;;;;5085804;28;20441;-57
2022/03/10 00:31:41;;;;;;;;;;;-0.20;99.90;;;;;;5084709;28;19919;-56
2022/03/10 00:34:08;;;;;;;;;;;-0.20;99.90;;;;;;5093420;28;19924;-55
2022/03/10 00:36:35;;;;;;;;;;;-0.30;99.90;;;;;;5087759;28;20006;-57
2022/03/10 00:39:03;;;;;;;;;;;-0.30;99.90;;;;;;5083300;28;20446;-57
2022/03/10 00:41:30;;;;;;;;;;;-0.40;99.90;;;;;;5093073;28;20035;-55
2022/03/10 00:43:56;;;;;;;;;;;-0.40;99.90;;;;;;5093257;28;19920;-54
2022/03/10 00:46:24;;;;;;;;;;;-0.40;99.90;;;;;;5081363;28;19921;-55
2022/03/10 00:48:51;;;;;;;;;;;-0.50;99.90;;;;;;5080601;28;19965;-56
2022/03/10 00:51:18;;;;;;;;;;;-0.50;99.90;;;;;;5085994;28;19927;-55
2022/03/10 00:53:45;;;;;;;;;;;-0.40;99.90;;;;;;5093028;28;19953;-55
2022/03/10 00:56:12;;;;;;;;;;;-0.40;99.90;;;;;;5088642;28;20359;-56
2022/03/10 00:58:39;;;;;;;;;;;-0.50;99.90;;;;;;5079949;28;19928;-53
2022/03/10 01:01:08;;;;;;;;;;;-0.50;99.90;;;;;;5092054;28;19923;-55
2022/03/10 01:03:36;;;;;;;;;;;-0.50;99.90;;;;;;5092345;28;19920;-54
2022/03/10 01:06:03;;;;;;;;;;;-0.50;99.90;;;;;;5086079;28;19919;-56
2022/03/10 01:08:30;;;;;;;;;;;-0.50;99.90;;;;;;5073526;28;20007;-54
2022/03/10 01:10:56;;;;;;;;;;;-0.60;99.90;;;;;;5052202;28;19931;-56
2022/03/10 01:13:23;;;;;;;;;;;-0.60;99.90;;;;;;5052529;28;20400;-55
2022/03/10 01:15:50;;;;;;;;;;;-0.60;99.90;;;;;;5079638;28;19931;-56
2022/03/10 01:18:19;;;;;;;;;;;-0.60;99.90;;;;;;5082012;28;20323;-55
2022/03/10 01:20:46;;;;;;;;;;;-0.70;99.90;;;;;;5050775;28;20082;-54
2022/03/10 01:23:14;;;;;;;;;;;-0.70;99.90;;;;;;5076541;28;20384;-52
2022/03/10 01:25:41;;;;;;;;;;;-0.70;99.90;;;;;;5088553;28;19926;-57
2022/03/10 01:28:08;;;;;;;;;;;-0.80;99.90;;;;;;5084997;28;19924;-57
2022/03/10 01:30:35;;;;;;;;;;;-0.90;99.90;;;;;;5053569;28;19926;-55
2022/03/10 01:33:01;;;;;;;;;;;-1.00;99.90;;;;;;5082774;28;19939;-57
2022/03/10 01:35:28;;;;;;;;;;;-1.00;99.90;;;;;;5091873;28;19920;-55
2022/03/10 01:37:55;;;;;;;;;;;-0.90;99.90;;;;;;5088468;28;19920;-56
2022/03/10 01:40:22;;;;;;;;;;;-1.00;99.90;;;;;;5074399;28;20407;-56
2022/03/10 01:42:49;;;;;;;;;;;-0.90;99.90;;;;;;5089274;28;19927;-55
2022/03/10 01:45:16;;;;;;;;;;;-0.90;99.90;;;;;;5092169;28;19946;-56
2022/03/10 01:47:43;;;;;;;;;;;-1.00;99.90;;;;;;5091331;28;19920;-56
2022/03/10 01:50:12;;;;;;;;;;;-0.90;99.90;;;;;;5078551;28;19946;-54
2022/03/10 01:52:40;;;;;;;;;;;-1.00;99.90;;;;;;5087942;28;19924;-56
2022/03/10 01:55:07;;;;;;;;;;;-1.00;99.90;;;;;;5091854;28;19973;-55
2022/03/10 01:57:34;;;;;;;;;;;-1.00;99.90;;;;;;5085387;28;19927;-55
2022/03/10 02:00:01;;;;;;;;;;;-1.00;99.90;;;;;;5065789;28;20296;-56
2022/03/10 02:02:30;;;;;;;;;;;-1.10;99.90;;;;;;5092044;28;20327;-56
2022/03/10 02:04:56;;;;;;;;;;;-1.10;99.90;;;;;;5091922;28;19923;-55
2022/03/10 02:10:26;;;;;;;;;;;-1.30;99.90;;;;;;5009389;28;19937;-55
2022/03/10 02:12:53;;;;;;;;;;;-1.30;99.90;;;;;;5043867;28;19943;-56
2022/03/10 02:18:06;;;;;;;;;;;-1.20;99.90;;;;;;5082870;28;20426;-55
2022/03/10 02:20:34;;;;;;;;;;;-1.20;99.90;;;;;;5075588;28;19920;-55
2022/03/10 02:23:01;;;;;;;;;;;-1.20;99.90;;;;;;5075988;28;19924;-56
2022/03/10 02:25:28;;;;;;;;;;;-1.30;99.90;;;;;;5081121;28;19943;-55
2022/03/10 02:27:56;;;;;;;;;;;-1.30;99.90;;;;;;5087465;28;20023;-57
2022/03/10 02:30:24;;;;;;;;;;;-1.40;99.90;;;;;;5095559;28;19973;-56
2022/03/10 02:32:51;;;;;;;;;;;-1.50;99.90;;;;;;5095712;28;19927;-55
2022/03/10 02:35:18;;;;;;;;;;;-1.50;99.90;;;;;;5089276;28;20289;-54
2022/03/10 02:37:45;;;;;;;;;;;-1.50;99.90;;;;;;5070384;22;20026;-60
2022/03/10 02:40:13;;;;;;;;;;;-1.40;99.90;;;;;;5067961;28;19982;-60
2022/03/10 02:42:39;;;;;;;;;;;-1.50;99.90;;;;;;5039661;28;20324;-60
2022/03/10 02:45:06;;;;;;;;;;;-1.40;99.90;;;;;;5040984;28;19920;-60
2022/03/10 02:47:34;;;;;;;;;;;-1.40;99.90;;;;;;5059845;28;19924;-60
2022/03/10 02:50:03;;;;;;;;;;;-1.40;99.90;;;;;;5054922;28;19928;-60
2022/03/10 02:52:30;;;;;;;;;;;-1.40;99.90;;;;;;5055211;28;19924;-62
2022/03/10 02:54:57;;;;;;;;;;;-1.40;99.90;;;;;;5038912;28;19935;-62
2022/03/10 02:57:25;;;;;;;;;;;-1.40;99.90;;;;;;5054875;28;19920;-62
2022/03/10 02:59:51;;;;;;;;;;;-1.40;99.90;;;;;;5054445;28;19925;-62
2022/03/10 03:02:18;;;;;;;;;;;-1.40;99.90;;;;;;5052416;28;20031;-60
2022/03/10 03:04:45;;;;;;;;;;;-1.40;99.90;;;;;;5054930;28;19928;-62
2022/03/10 03:07:12;;;;;;;;;;;-1.50;99.90;;;;;;5054715;28;19924;-62
2022/03/10 03:09:41;;;;;;;;;;;-1.50;99.90;;;;;;5041202;28;19921;-62
2022/03/10 03:12:08;;;;;;;;;;;-1.50;99.90;;;;;;5052910;28;20323;-60
2022/03/10 03:14:35;;;;;;;;;;;-1.50;99.90;;;;;;5054687;28;20045;-60
2022/03/10 03:17:02;;;;;;;;;;;-1.50;99.90;;;;;;5054804;28;19921;-60
2022/03/10 03:19:29;;;;;;;;;;;-1.50;99.90;;;;;;5044769;28;19929;-60
2022/03/10 03:21:55;;;;;;;;;;;-1.50;99.90;;;;;;5054254;28;19932;-60
2022/03/10 03:24:22;;;;;;;;;;;-1.50;99.90;;;;;;5054001;28;19991;-60
2022/03/10 03:26:49;;;;;;;;;;;-1.60;99.90;;;;;;5054048;28;19921;-60
2022/03/10 03:29:16;;;;;;;;;;;-1.60;99.90;;;;;;5036752;28;20389;-60
2022/03/10 03:31:43;;;;;;;;;;;-1.60;99.90;;;;;;5054425;28;19928;-62
2022/03/10 03:34:10;;;;;;;;;;;-1.70;99.90;;;;;;5054231;28;19928;-62
2022/03/10 03:36:41;;;;;;;;;;;-1.70;99.90;;;;;;5047591;28;20008;-60
2022/03/10 03:39:08;;;;;;;;;;;-1.80;99.90;;;;;;5041274;28;19958;-62
2022/03/10 03:41:35;;;;;;;;;;;-1.90;99.90;;;;;;5034306;28;19920;-62
2022/03/10 03:44:02;;;;;;;;;;;-1.90;99.90;;;;;;5029401;28;19928;-62
2022/03/10 03:46:29;;;;;;;;;;;-1.90;99.90;;;;;;5053855;28;20015;-60
2022/03/10 03:48:56;;;;;;;;;;;-1.90;99.90;;;;;;5033563;28;19976;-62
2022/03/10 03:51:23;;;;;;;;;;;-1.90;99.90;;;;;;5014376;28;19921;-59
2022/03/10 03:53:50;;;;;;;;;;;-2.00;99.90;;;;;;5048517;28;19982;-62
2022/03/10 03:56:17;;;;;;;;;;;-1.90;99.90;;;;;;5054169;28;20331;-60
2022/03/10 03:58:44;;;;;;;;;;;-1.90;99.90;;;;;;5035811;28;19925;-60
2022/03/10 04:01:11;;;;;;;;;;;-1.90;99.90;;;;;;5013739;28;19932;-62
2022/03/10 04:03:38;;;;;;;;;;;-1.90;99.90;;;;;;5045340;28;19921;-60
2022/03/10 04:06:06;;;;;;;;;;;-1.90;99.90;;;;;;5053551;28;19931;-60
2022/03/10 04:08:33;;;;;;;;;;;-1.90;99.90;;;;;;5040061;28;19928;-60
2022/03/10 04:11:00;;;;;;;;;;;-2.00;99.90;;;;;;5050576;28;19970;-63
2022/03/10 04:13:27;;;;;;;;;;;-2.00;99.90;;;;;;5053732;28;19928;-62
2022/03/10 04:15:54;;;;;;;;;;;-1.90;99.90;;;;;;5053276;28;19920;-60
2022/03/10 04:18:21;;;;;;;;;;;-1.90;99.90;;;;;;5042844;28;19933;-60
2022/03/10 04:20:48;;;;;;;;;;;-2.00;99.90;;;;;;5047353;28;20432;-60
2022/03/10 04:23:18;;;;;;;;;;;-2.00;99.90;;;;;;5053540;28;20369;-62
2022/03/10 04:25:44;;;;;;;;;;;-2.00;99.90;;;;;;5052613;28;19920;-60
2022/03/10 04:28:11;;;;;;;;;;;-2.00;99.90;;;;;;5044621;28;19951;-62
2022/03/10 04:30:44;;;;;;;;;;;-2.00;99.90;;;;;;5048063;28;19925;-62
2022/03/10 04:33:11;;;;;;;;;;;-2.00;99.90;;;;;;5032930;28;20397;-62
2022/03/10 04:35:38;;;;;;;;;;;-1.90;99.90;;;;;;5029280;28;19921;-60
2022/03/10 04:38:05;;;;;;;;;;;-1.90;99.90;;;;;;5029507;28;19975;-62
2022/03/10 04:40:32;;;;;;;;;;;-1.90;99.90;;;;;;5032528;28;19943;-60
2022/03/10 04:42:59;;;;;;;;;;;-2.00;99.90;;;;;;5032895;28;19927;-60
2022/03/10 04:45:26;;;;;;;;;;;-2.10;99.90;;;;;;5029782;28;20020;-60
2022/03/10 04:47:53;;;;;;;;;;;-2.20;99.90;;;;;;5032471;28;19921;-60
2022/03/10 04:50:19;;;;;;;;;;;-2.20;99.90;;;;;;5031610;28;19921;-62
2022/03/10 04:52:46;;;;;;;;;;;-2.30;99.90;;;;;;5032810;28;19931;-61
2022/03/10 04:55:13;;;;;;;;;;;-2.30;99.90;;;;;;5028718;28;19925;-62
2022/03/10 04:57:40;;;;;;;;;;;-2.30;99.90;;;;;;5052420;28;19939;-62
2022/03/10 05:00:10;;;;;;;;;;;-2.30;99.90;;;;;;5039468;28;19924;-62
2022/03/10 05:02:38;;;;;;;;;;;-2.30;99.90;;;;;;5029493;28;20594;-62
2022/03/10 05:05:10;;;;;;;;;;;-2.20;99.90;;;;;;5045213;28;19936;-60
2022/03/10 05:07:36;;;;;;;;;;;-2.20;99.90;;;;;;5052223;28;19929;-62
2022/03/10 05:10:04;;;;;;;;;;;-2.20;99.90;;;;;;5052501;28;19920;-62
2022/03/10 05:12:32;;;;;;;;;;;-2.20;99.90;;;;;;5045907;28;19921;-62
2022/03/10 05:14:59;;;;;;;;;;;-2.20;99.90;;;;;;5041589;28;19939;-62
2022/03/10 05:17:26;;;;;;;;;;;-2.20;99.90;;;;;;5032005;28;19921;-60
2022/03/10 05:19:52;;;;;;;;;;;-2.20;99.90;;;;;;5031551;28;19921;-60
2022/03/10 05:22:19;;;;;;;;;;;-2.20;99.90;;;;;;5045496;28;19956;-59
2022/03/10 05:24:46;;;;;;;;;;;-2.30;99.90;;;;;;5042735;28;20008;-60
2022/03/10 05:27:13;;;;;;;;;;;-2.40;99.90;;;;;;5030594;28;19928;-62
2022/03/10 05:29:40;;;;;;;;;;;-2.40;99.90;;;;;;5033150;28;19921;-60
2022/03/10 05:32:08;;;;;;;;;;;-2.50;99.90;;;;;;5052069;28;19924;-60
2022/03/10 05:34:38;;;;;;;;;;;-2.50;99.90;;;;;;5052234;28;19921;-59
2022/03/10 05:37:05;;;;;;;;;;;-2.50;99.90;;;;;;5033633;28;19928;-60
2022/03/10 05:39:32;;;;;;;;;;;-2.50;99.90;;;;;;5031156;28;19968;-62
2022/03/10 05:41:59;;;;;;;;;;;-2.50;99.90;;;;;;5051955;28;19925;-60
2022/03/10 05:44:26;;;;;;;;;;;-2.50;99.90;;;;;;5052057;28;20031;-62
2022/03/10 05:46:53;;;;;;;;;;;-2.50;99.90;;;;;;5034787;28;19921;-62
2022/03/10 05:49:20;;;;;;;;;;;-2.50;99.90;;;;;;5037202;28;19943;-60
2022/03/10 05:51:46;;;;;;;;;;;-2.60;99.90;;;;;;5051828;28;20339;-62
2022/03/10 05:54:13;;;;;;;;;;;-2.50;99.90;;;;;;5051926;28;19994;-62
2022/03/10 05:56:40;;;;;;;;;;;-2.50;99.90;;;;;;5038897;28;19927;-62
2022/03/10 05:59:07;;;;;;;;;;;-2.50;99.90;;;;;;5051266;28;19979;-61
2022/03/10 06:01:34;;;;;;;;;;;-2.50;99.90;;;;;;5051653;28;19921;-61
2022/03/10 06:04:01;;;;;;;;;;;-2.50;99.90;;;;;;5047968;28;19929;-61
2022/03/10 06:06:32;;;;;;;;;;;-2.50;99.90;;;;;;5032920;28;19921;-62
2022/03/10 06:08:59;;;;;;;;;;;-2.40;99.90;;;;;;5031022;28;20492;-61
2022/03/10 06:11:25;;;;;;;;;;;-2.40;99.90;;;;;;5030842;28;19924;-61
2022/03/10 06:13:52;;;;;;;;;;;-2.40;99.90;;;;;;5027267;28;19928;-61
2022/03/10 06:16:19;;;;;;;;;;;-2.40;99.90;;;;;;5031542;28;20404;-61
2022/03/10 06:18:47;;;;;;;;;;;-2.40;99.90;;;;;;5030664;28;19929;-62
2022/03/10 06:21:13;;;;;;;;;;;-2.30;99.90;;;;;;5031388;28;19990;-62
2022/03/10 06:23:40;;;;;;;;;;;-2.30;99.90;;;;;;5026949;28;19922;-61
2022/03/10 06:26:07;;;;;;;;;;;-2.30;99.90;;;;;;5050724;28;19959;-61
2022/03/10 06:28:34;;;;;;;;;;;-2.20;99.90;;;;;;5051792;28;19951;-61
2022/03/10 06:31:01;;;;;;;;;;;-2.20;99.90;;;;;;5051158;28;19921;-61
2022/03/10 06:33:28;;;;;;;;;;;-2.20;99.90;;;;;;5040670;28;19921;-61
2022/03/10 06:35:55;;;;;;;;;;;-2.10;99.90;;;;;;5051031;28;19920;-61
2022/03/10 06:38:22;;;;;;;;;;;-2.10;99.90;;;;;;5051351;28;19928;-62
2022/03/10 06:40:49;;;;;;;;;;;-2.10;99.90;;;;;;5046641;28;20646;-61
2022/03/10 06:43:16;;;;;;;;;;;-2.00;99.90;;;;;;5051238;28;20012;-61
2022/03/10 06:45:43;;;;;;;;;;;-2.00;99.90;;;;;;5051324;28;19920;-61
2022/03/10 06:48:10;;;;;;;;;;;-2.00;99.90;;;;;;5031110;28;19921;-61
2022/03/10 06:50:37;;;;;;;;;;;-2.10;99.90;;;;;;5030380;28;19975;-61
2022/03/10 06:53:05;;;;;;;;;;;-2.10;99.90;;;;;;5033728;28;19979;-61
2022/03/10 06:55:31;;;;;;;;;;;-2.00;99.90;;;;;;5031069;28;20447;-61
2022/03/10 06:57:58;;;;;;;;;;;-2.00;99.90;;;;;;5024922;28;20012;-61
2022/03/10 07:00:25;;;;;;;;;;;-1.90;99.90;;;;;;5047870;28;19948;-61
2022/03/10 07:02:52;;;;;;;;;;;-1.80;99.90;;;;;;5053367;28;19921;-61
2022/03/10 07:05:19;;;;;;;;;;;-1.60;99.90;;;;;;5050788;28;19928;-61
2022/03/10 07:07:46;;;;;;;;;;;-1.50;99.90;;;;;;5047206;28;19966;-61
2022/03/10 07:10:13;;;;;;;;;;;-1.30;99.90;;;;;;5053611;28;19924;-61
2022/03/10 07:12:40;;;;;;;;;;;-1.10;99.90;;;;;;5053546;28;19920;-61
2022/03/10 07:15:08;;;;;;;;;;;-1.00;99.90;;;;;;5039388;28;19932;-61
2022/03/10 07:17:35;;;;;;;;;;;-0.80;99.90;;;;;;5054325;28;20031;-62
2022/03/10 07:20:02;;;;;;;;;;;-0.70;99.90;;;;;;5054405;28;19971;-61
2022/03/10 07:22:29;;;;;;;;;;;-0.60;99.90;;;;;;5047699;28;20335;-61
2022/03/10 07:24:56;;;;;;;;;;;-0.40;99.90;;;;;;5054620;28;19921;-61
2022/03/10 07:27:23;;;;;;;;;;;-0.30;99.90;;;;;;5054268;28;19931;-61
2022/03/10 07:29:50;;;;;;;;;;;-0.20;99.90;;;;;;5052055;28;19920;-62
2022/03/10 07:32:17;;;;;;;;;;;-0.10;99.90;;;;;;5054304;28;20335;-61
2022/03/10 07:34:47;;;;;;;;;;;0.00;99.90;;;;;;5054382;28;20393;-62
2022/03/10 07:37:15;;;;;;;;;;;0.10;99.90;;;;;;5053771;28;20024;-62
2022/03/10 07:39:42;;;;;;;;;;;0.10;99.90;;;;;;5048624;28;20305;-61
2022/03/10 07:42:09;;;;;;;;;;;0.20;99.90;;;;;;5054007;28;19964;-61
2022/03/10 07:44:36;;;;;;;;;;;0.30;99.90;;;;;;5054322;28;19983;-62
2022/03/10 07:47:03;;;;;;;;;;;0.50;99.90;;;;;;5047459;28;19927;-62
2022/03/10 07:49:30;;;;;;;;;;;0.60;99.90;;;;;;5053326;28;19921;-62
2022/03/10 07:51:56;;;;;;;;;;;0.70;99.90;;;;;;5054026;28;19927;-62
2022/03/10 07:54:25;;;;;;;;;;;0.90;99.90;;;;;;5053933;28;19924;-61
2022/03/10 07:56:52;;;;;;;;;;;1.00;99.90;;;;;;5044741;28;20019;-62
2022/03/10 07:59:19;;;;;;;;;;;1.10;99.90;;;;;;5053181;28;19924;-62
2022/03/10 08:01:46;;;;;;;;;;;1.20;99.90;;;;;;5053852;28;19924;-62
2022/03/10 08:04:13;;;;;;;;;;;1.40;99.90;;;;;;5045800;28;19921;-61
2022/03/10 08:06:40;;;;;;;;;;;1.50;99.90;;;;;;5053690;28;20365;-62
2022/03/10 08:09:06;;;;;;;;;;;1.60;99.90;;;;;;5053277;28;19927;-62
2022/03/10 08:11:33;;;;;;;;;;;1.60;99.90;;;;;;5040520;28;19926;-62
2022/03/10 08:14:00;;;;;;;;;;;1.80;99.90;;;;;;5051118;28;19966;-61
2022/03/10 08:16:27;;;;;;;;;;;2.00;99.90;;;;;;5053281;28;20462;-62
2022/03/10 08:18:54;;;;;;;;;;;2.20;99.90;;;;;;5053115;28;19920;-62
2022/03/10 08:21:21;;;;;;;;;;;2.30;99.90;;;;;;5043179;28;20003;-61
2022/03/10 08:23:48;;;;;;;;;;;2.30;99.90;;;;;;5053255;28;19928;-62
2022/03/10 08:26:15;;;;;;;;;;;2.20;99.90;;;;;;5053446;28;19924;-62
2022/03/10 08:28:42;;;;;;;;;;;2.30;99.90;;;;;;5045811;28;19932;-62
2022/03/10 08:31:10;;;;;;;;;;;2.50;99.90;;;;;;5053126;28;20008;-61
2022/03/10 08:33:37;;;;;;;;;;;2.70;99.90;;;;;;5053322;28;20372;-62
2022/03/10 08:36:06;;;;;;;;;;;2.90;99.90;;;;;;5052736;28;20011;-60
2022/03/10 08:38:33;;;;;;;;;;;3.10;99.90;;;;;;5062564;22;19943;-57
2022/03/10 08:41:00;;;;;;;;;;;3.00;99.90;;;;;;5051789;28;20400;-53
2022/03/10 08:43:29;;;;;;;;;;;3.10;99.90;;;;;;5053056;28;19928;-51
2022/03/10 08:45:56;;;;;;;;;;;3.20;99.90;;;;;;5051248;28;19921;-51
2022/03/10 08:48:23;;;;;;;;;;;3.30;99.90;;;;;;5036199;28;19921;-56
2022/03/10 08:50:50;;;;;;;;;;;3.50;99.90;;;;;;5049856;28;20007;-54
2022/03/10 08:53:18;;;;;;;;;;;3.60;99.90;;;;;;5052947;28;19967;-54
2022/03/10 08:55:45;;;;;;;;;;;3.60;99.90;;;;;;5043114;28;20438;-55
2022/03/10 08:58:12;;;;;;;;;;;3.70;99.90;;;;;;5045000;28;19920;-55
2022/03/10 09:00:40;;;;;;;;;;;3.70;99.90;;;;;;5052423;28;20012;-55
2022/03/10 09:03:07;;;;;;;;;;;3.80;99.90;;;;;;5052631;28;19932;-55
2022/03/10 09:05:36;;;;;;;;;;;3.70;99.90;;;;;;5037687;28;19956;-53
2022/03/10 09:08:03;;;;;;;;;;;3.80;99.90;;;;;;5043792;28;19928;-54
2022/03/10 09:10:30;;;;;;;;;;;4.00;99.90;;;;;;5036878;28;19968;-54
2022/03/10 09:12:58;;;;;;;;;;;4.10;99.90;;;;;;5028325;28;19921;-54
2022/03/10 09:15:27;;;;;;;;;;;4.20;99.90;;;;;;5046848;28;19921;-54
2022/03/10 09:17:54;;;;;;;;;;;4.40;99.90;;;;;;5032487;28;19921;-55
2022/03/10 09:20:21;;;;;;;;;;;4.50;99.80;;;;;;5032167;28;19928;-56
2022/03/10 09:22:49;;;;;;;;;;;4.60;99.90;;;;;;5036458;28;19967;-54
2022/03/10 09:25:16;;;;;;;;;;;4.90;99.60;;;;;;5044908;28;20432;-56
2022/03/10 09:27:43;;;;;;;;;;;5.10;99.40;;;;;;5051991;28;19943;-56
2022/03/10 09:30:11;;;;;;;;;;;5.30;97.40;;;;;;5044838;28;19979;-56
2022/03/10 09:32:39;;;;;;;;;;;5.40;97.50;;;;;;5035735;28;19921;-56
2022/03/10 09:35:07;;;;;;;;;;;5.30;97.20;;;;;;5051562;28;19960;-55
2022/03/10 09:37:34;;;;;;;;;;;5.40;97.40;;;;;;5051971;28;19920;-56
2022/03/10 09:40:02;;;;;;;;;;;5.50;96.90;;;;;;5047032;28;20008;-56
2022/03/10 09:42:29;;;;;;;;;;;5.50;95.10;;;;;;5044122;28;19959;-56
2022/03/10 09:44:57;;;;;;;;;;;5.70;95.00;;;;;;5051778;28;19920;-56
2022/03/10 09:47:25;;;;;;;;;;;5.90;95.60;;;;;;5051637;28;19971;-56
2022/03/10 09:49:52;;;;;;;;;;;5.90;95.50;;;;;;5045141;28;20296;-55
2022/03/10 09:52:19;;;;;;;;;;;5.80;93.90;;;;;;5044863;28;19921;-55
2022/03/10 09:54:46;;;;;;;;;;;6.00;93.70;;;;;;5051853;28;19921;-54
2022/03/10 09:57:14;;;;;;;;;;;6.10;93.10;;;;;;5051564;28;19925;-56
2022/03/10 09:59:48;;;;;;;;;;;6.00;91.60;;;;;;5038141;28;19921;-56
2022/03/10 10:02:15;;;;;;;;;;;6.10;92.20;;;;;;5036903;28;20448;-56
2022/03/10 10:04:43;;;;;;;;;;;6.30;91.40;;;;;;5051748;28;19974;-55
2022/03/10 10:07:11;;;;;;;;;;;6.60;90.80;;;;;;5051462;28;19924;-56
2022/03/10 10:09:39;;;;;;;;;;;6.70;90.00;;;;;;5039104;28;19921;-54
2022/03/10 10:12:06;;;;;;;;;;;6.70;88.60;;;;;;5050806;28;19929;-56
2022/03/10 10:14:39;;;;;;;;;;;6.80;88.40;;;;;;5051684;28;19943;-57
2022/03/10 10:17:06;;;;;;;;;;;6.90;87.50;;;;;;5049752;28;19925;-59
2022/03/10 10:19:34;;;;;;;;;;;7.10;86.80;;;;;;5034393;28;19927;-55
2022/03/10 10:22:23;;;;;;;;;;;7.30;85.10;;;;;;5011736;28;19965;-55
2022/03/10 10:24:57;;;;;;;;;;;7.50;84.10;;;;;;5013210;28;19925;-55
2022/03/10 10:27:26;;;;;;;;;;;7.70;83.00;;;;;;5042948;28;19925;-54
2022/03/10 10:29:57;;;;;;;;;;;7.70;80.40;;;;;;5051459;28;19921;-56
2022/03/10 10:32:33;;;;;;;;;;;7.60;77.40;;;;;;5050967;28;19924;-56
2022/03/10 10:35:10;;;;;;;;;;;7.80;77.60;;;;;;5042515;28;19925;-57
2022/03/10 10:37:38;;;;;;;;;;;8.00;78.10;;;;;;5055352;28;19920;-56
2022/03/10 10:40:07;;;;;;;;;;;8.20;77.80;;;;;;5055225;28;19925;-56
2022/03/10 10:42:35;;;;;;;;;;;8.00;75.80;;;;;;5039205;28;20306;-56
2022/03/10 10:45:22;;;;;;;;;;;8.10;75.80;;;;;;5054187;28;19924;-56
2022/03/10 10:48:18;;;;;;;;;;;8.20;74.80;;;;;;5055193;28;19971;-57
2022/03/10 10:50:45;;;;;;;;;;;8.10;73.30;;;;;;5049821;28;19956;-55
2022/03/10 10:53:31;;;;;;;;;;;8.20;76.60;;;;;;5047488;28;19927;-56
2022/03/10 10:56:02;;;;;;;;;;;8.30;76.30;;;;;;5055592;28;19984;-56
2022/03/10 10:58:29;;;;;;;;;;;8.50;76.30;;;;;;5047871;28;20304;-57
2022/03/10 11:00:57;;;;;;;;;;;8.50;75.00;;;;;;5046318;28;19921;-55
2022/03/10 11:03:25;;;;;;;;;;;8.60;73.00;;;;;;5054892;28;19924;-56
2022/03/10 11:05:53;;;;;;;;;;;8.70;74.10;;;;;;5054864;28;19921;-56
2022/03/10 11:08:21;;;;;;;;;;;8.80;72.20;;;;;;5045604;28;19936;-56
2022/03/10 11:10:48;;;;;;;;;;;8.70;72.80;;;;;;5046092;28;19946;-57
2022/03/10 11:13:20;;;;;;;;;;;8.90;73.40;;;;;;5054678;28;19921;-57
2022/03/10 11:15:47;;;;;;;;;;;8.90;68.50;;;;;;5054732;28;19924;-57
2022/03/10 11:18:14;;;;;;;;;;;9.10;69.10;;;;;;5035555;28;19921;-57
2022/03/10 11:20:47;;;;;;;;;;;9.10;69.20;;;;;;5050356;28;19920;-57
2022/03/10 11:23:43;;;;;;;;;;;9.10;68.50;;;;;;5054640;28;19928;-56
2022/03/10 11:26:10;;;;;;;;;;;9.10;67.90;;;;;;5045967;28;19928;-56
2022/03/10 11:28:42;;;;;;;;;;;9.20;68.80;;;;;;5045871;28;19920;-57
2022/03/10 11:31:10;;;;;;;;;;;9.30;69.50;;;;;;5054190;28;19920;-56
2022/03/10 11:33:37;;;;;;;;;;;9.50;68.10;;;;;;5054578;28;19924;-56
2022/03/10 11:36:20;;;;;;;;;;;9.60;67.90;;;;;;5034839;28;20394;-57
2022/03/10 11:38:52;;;;;;;;;;;9.60;67.00;;;;;;5050399;28;19921;-57
2022/03/10 11:41:19;;;;;;;;;;;9.70;66.40;;;;;;5054160;28;20400;-57
2022/03/10 11:43:56;;;;;;;;;;;9.80;67.30;;;;;;5040005;28;19921;-57
2022/03/10 11:46:23;;;;;;;;;;;9.90;66.60;;;;;;5052971;28;19924;-57
2022/03/10 11:48:59;;;;;;;;;;;10.00;67.30;;;;;;5053366;28;19964;-57
2022/03/10 11:51:41;;;;;;;;;;;10.00;66.20;;;;;;5051818;28;20384;-57
2022/03/10 11:54:15;;;;;;;;;;;10.10;65.50;;;;;;5038092;28;19927;-57
2022/03/10 11:56:44;;;;;;;;;;;10.20;66.80;;;;;;5053650;28;20426;-56
2022/03/10 11:59:22;;;;;;;;;;;10.30;66.20;;;;;;5049531;28;19924;-57
2022/03/10 12:01:49;;;;;;;;;;;10.50;65.00;;;;;;5039774;28;19920;-57
2022/03/10 12:04:17;;;;;;;;;;;10.50;64.80;;;;;;5053868;28;19921;-57
2022/03/10 12:06:54;;;;;;;;;;;10.60;64.50;;;;;;5053449;28;19920;-57
2022/03/10 12:09:41;;;;;;;;;;;10.60;63.80;;;;;;5041389;28;19929;-57
2022/03/10 12:12:11;;;;;;;;;;;10.70;63.70;;;;;;5053524;28;19921;-56
2022/03/10 12:15:18;;;;;;;;;;;10.70;64.30;;;;;;5050556;28;19927;-58
2022/03/10 12:17:45;;;;;;;;;;;10.80;64.50;;;;;;5041611;28;19943;-58
2022/03/10 12:20:13;;;;;;;;;;;11.00;63.90;;;;;;5053442;28;19956;-57
2022/03/10 12:22:40;;;;;;;;;;;11.10;63.70;;;;;;5053225;28;19924;-57
2022/03/10 12:25:20;;;;;;;;;;;11.20;63.30;;;;;;5036857;28;20443;-57
2022/03/10 12:27:51;;;;;;;;;;;11.20;64.20;;;;;;5044600;28;19928;-57
2022/03/10 12:30:22;;;;;;;;;;;11.30;62.30;;;;;;5053003;28;19921;-59
2022/03/10 12:32:50;;;;;;;;;;;11.40;61.30;;;;;;5048468;28;20658;-57
2022/03/10 12:35:18;;;;;;;;;;;11.50;62.00;;;;;;5044746;28;20043;-59
2022/03/10 12:37:46;;;;;;;;;;;11.60;62.40;;;;;;5052807;28;19921;-59
2022/03/10 12:40:20;;;;;;;;;;;11.70;61.20;;;;;;5052845;28;19967;-59
2022/03/10 12:42:47;;;;;;;;;;;11.60;62.20;;;;;;5045365;28;20400;-59
2022/03/10 12:45:21;;;;;;;;;;;11.60;62.80;;;;;;5044482;28;19996;-59
2022/03/10 12:47:53;;;;;;;;;;;11.60;63.10;;;;;;5052725;28;19990;-57
2022/03/10 12:50:20;;;;;;;;;;;11.80;61.50;;;;;;5052692;28;20438;-59
2022/03/10 12:52:47;;;;;;;;;;;11.80;59.80;;;;;;5042691;28;20380;-59
2022/03/10 12:55:14;;;;;;;;;;;11.90;60.50;;;;;;5045165;28;20388;-60
2022/03/10 12:57:41;;;;;;;;;;;12.00;60.60;;;;;;5052547;28;19927;-57
2022/03/10 13:00:18;;;;;;;;;;;12.00;60.90;;;;;;5052481;28;19927;-60
2022/03/10 13:02:45;;;;;;;;;;;12.00;60.60;;;;;;5036633;28;19928;-57
2022/03/10 13:05:18;;;;;;;;;;;12.10;59.60;;;;;;5044635;28;19924;-59
2022/03/10 13:07:45;;;;;;;;;;;12.10;59.90;;;;;;5052391;28;19921;-59
2022/03/10 13:10:14;;;;;;;;;;;12.20;60.30;;;;;;5036629;28;19921;-59
2022/03/10 13:12:46;;;;;;;;;;;12.20;61.50;;;;;;5043967;28;19970;-59
2022/03/10 13:15:21;;;;;;;;;;;12.30;59.70;;;;;;5052285;28;20049;-59
2022/03/10 13:17:49;;;;;;;;;;;12.40;58.90;;;;;;5036303;28;19932;-60
2022/03/10 13:20:22;;;;;;;;;;;12.40;60.10;;;;;;5043992;28;19956;-57
2022/03/10 13:22:50;;;;;;;;;;;12.40;58.40;;;;;;5052439;28;19928;-57
2022/03/10 13:25:18;;;;;;;;;;;12.40;58.40;;;;;;5052192;28;19974;-59
2022/03/10 13:27:46;;;;;;;;;;;12.40;59.10;;;;;;5048778;28;19921;-59
2022/03/10 13:30:20;;;;;;;;;;;12.50;59.60;;;;;;5043792;28;19920;-59
2022/03/10 13:32:49;;;;;;;;;;;12.50;58.20;;;;;;5052220;28;19928;-57
2022/03/10 13:35:21;;;;;;;;;;;12.60;59.10;;;;;;5042671;28;19920;-57
2022/03/10 13:37:48;;;;;;;;;;;12.60;59.60;;;;;;5043462;28;20195;-60
2022/03/10 13:40:16;;;;;;;;;;;12.60;58.10;;;;;;5051791;28;19921;-60
2022/03/10 13:42:50;;;;;;;;;;;12.70;58.40;;;;;;5038091;28;19921;-59
2022/03/10 13:45:18;;;;;;;;;;;12.70;58.10;;;;;;5033078;28;19921;-57
2022/03/10 13:47:50;;;;;;;;;;;12.70;57.30;;;;;;5031798;28;19921;-59
2022/03/10 13:50:19;;;;;;;;;;;12.70;58.70;;;;;;5031690;28;19928;-60
2022/03/10 13:52:46;;;;;;;;;;;12.70;56.80;;;;;;5036902;28;19932;-57
2022/03/10 13:55:12;;;;;;;;;;;12.70;57.80;;;;;;5051721;28;19940;-60
2022/03/10 13:57:42;;;;;;;;;;;12.70;59.90;;;;;;5051608;28;19925;-59
2022/03/10 14:00:09;;;;;;;;;;;12.80;60.80;;;;;;5040300;28;19927;-57
2022/03/10 14:02:36;;;;;;;;;;;12.80;59.00;;;;;;5047071;28;19920;-57
2022/03/10 14:05:10;;;;;;;;;;;12.80;59.00;;;;;;5051738;28;19967;-59
2022/03/10 14:07:37;;;;;;;;;;;12.70;61.20;;;;;;5043611;28;19921;-60
2022/03/10 14:10:04;;;;;;;;;;;12.70;60.90;;;;;;5042498;28;19921;-59
2022/03/10 14:12:31;;;;;;;;;;;12.70;60.70;;;;;;5051596;28;20016;-60
2022/03/10 14:14:58;;;;;;;;;;;12.70;60.50;;;;;;5051048;28;20284;-59
2022/03/10 14:17:41;;;;;;;;;;;12.70;58.90;;;;;;5039057;28;19921;-60
2022/03/10 14:20:09;;;;;;;;;;;12.60;60.70;;;;;;5051146;28;20003;-59
2022/03/10 14:22:36;;;;;;;;;;;12.60;59.30;;;;;;5051806;28;19921;-59
2022/03/10 14:25:04;;;;;;;;;;;12.60;60.80;;;;;;5037228;28;19929;-57
2022/03/10 14:27:40;;;;;;;;;;;12.50;63.00;;;;;;5045879;28;20018;-57
2022/03/10 14:30:09;;;;;;;;;;;12.50;61.30;;;;;;5051371;28;19924;-58
2022/03/10 14:32:36;;;;;;;;;;;12.50;61.60;;;;;;5044259;28;19967;-57
2022/03/10 14:35:03;;;;;;;;;;;12.50;62.40;;;;;;5041349;28;19947;-59